Beaver, Utah
Current Conditions -  °F | °C
As of 6:52 AM on Tuesday 27 Jan 2015 (Local Time) from KMLF Reporting Station
Light Rain Light Rain  
Wind Chill: 30°   Ceiling: 7000
Heat Index: 38°   Visibility: 10mi
Dew Point: 35°   Wind: 12mph
Humidity: 89%   Direction: 180°S
Pressure: 30.26"   Gusts: NA
Location:  38.28°N, 112.64°W
Report Text: KMLF 271352Z AUTO 18010KT 10SM -RA SCT055 BKN070 OVC095 03/02 A3026 RMK AO2 SLP242 P0002 T00330017 TSNO
Loading
Personal Weather Stations






























Interactive Weather Map New forecast layout! Learn more

10-Day Weather Forecast

Advertisements
Track Severe Weather on mobile